Time;durP1;ratioP1;P1;durP2;ratioP2;P2;SDS_P1;SDS_P2;PMS_P1;PMS_P2;Temp;Humidity;BMP_temperature;BMP_pressure;BME280_temperature;BME280_humidity;BME280_pressure;Samples;Min_cycle;Max_cycle;Signal;HPM_P1;HPM_P2
2024/02/24 00:00:21;;;;;;;0.20;0.00;;;4.90;99.90;;;;;;5017365;28;20025;-88
2024/02/24 00:02:46;;;;;;;0.20;0.10;;;4.80;99.90;;;;;;5015337;28;20053;-89
2024/02/24 00:05:12;;;;;;;0.88;0.10;;;4.80;99.90;;;;;;5014719;28;20059;-89
2024/02/24 00:07:38;;;;;;;0.50;0.00;;;4.80;99.90;;;;;;5030209;28;20039;-89
2024/02/24 00:10:04;;;;;;;0.20;0.05;;;4.80;99.90;;;;;;5017007;28;20068;-88
2024/02/24 00:12:29;;;;;;;1.13;0.10;;;4.70;99.90;;;;;;5033816;28;20036;-88
2024/02/24 00:14:55;;;;;;;0.40;0.10;;;4.70;99.90;;;;;;5029175;28;20057;-88
2024/02/24 00:17:20;;;;;;;1.05;0.10;;;4.60;99.90;;;;;;5029569;28;20041;-88
2024/02/24 00:19:46;;;;;;;0.40;0.10;;;4.60;99.90;;;;;;5028799;28;20026;-89
2024/02/24 00:22:12;;;;;;;0.30;0.10;;;4.60;99.90;;;;;;5028643;28;20044;-88
2024/02/24 00:24:37;;;;;;;0.40;0.10;;;4.50;99.90;;;;;;5013894;28;20480;-89
2024/02/24 00:27:03;;;;;;;0.40;0.10;;;4.50;99.90;;;;;;5031489;28;20366;-88
2024/02/24 00:29:29;;;;;;;0.40;0.03;;;4.50;99.90;;;;;;5013602;28;20053;-88
2024/02/24 00:31:54;;;;;;;0.22;0.00;;;4.40;99.90;;;;;;5016711;28;20041;-89
2024/02/24 00:34:20;;;;;;;0.30;0.10;;;4.40;99.90;;;;;;5030101;28;20063;-89
2024/02/24 00:36:45;;;;;;;0.28;0.10;;;4.40;99.90;;;;;;5015718;28;20382;-89
2024/02/24 00:39:11;;;;;;;0.30;0.10;;;4.40;99.90;;;;;;5033081;28;20029;-88
2024/02/24 00:41:37;;;;;;;0.20;0.00;;;4.30;99.90;;;;;;5049010;28;20053;-88
2024/02/24 00:44:03;;;;;;;0.88;0.20;;;4.30;99.90;;;;;;5016007;28;20456;-88
2024/02/24 00:46:29;;;;;;;0.60;0.10;;;4.40;99.90;;;;;;5032853;28;20021;-89
2024/02/24 00:48:54;;;;;;;0.35;0.08;;;4.30;99.90;;;;;;5026774;28;20492;-89
2024/02/24 00:51:20;;;;;;;0.50;0.10;;;4.30;99.90;;;;;;5031328;28;20040;-88
2024/02/24 00:53:45;;;;;;;0.90;0.10;;;4.30;99.90;;;;;;5015176;28;20029;-88
2024/02/24 00:56:11;;;;;;;0.90;0.10;;;4.30;99.90;;;;;;5014811;28;20025;-88
2024/02/24 00:58:37;;;;;;;0.50;0.10;;;4.30;99.90;;;;;;5048615;28;20024;-88
2024/02/24 01:01:03;;;;;;;0.75;0.10;;;4.30;99.90;;;;;;5029962;28;20036;-88
2024/02/24 01:03:29;;;;;;;0.28;0.10;;;4.30;99.90;;;;;;5032136;28;20028;-88
2024/02/24 01:05:54;;;;;;;0.35;0.10;;;4.20;99.90;;;;;;5012925;28;20037;-88
2024/02/24 01:08:20;;;;;;;0.25;0.00;;;4.30;99.90;;;;;;5028122;28;20025;-88
2024/02/24 01:10:46;;;;;;;0.20;0.10;;;4.20;99.90;;;;;;5028406;28;20055;-88
2024/02/24 01:13:11;;;;;;;0.63;0.10;;;4.20;99.90;;;;;;5030534;28;20472;-89
2024/02/24 01:15:37;;;;;;;0.63;0.10;;;4.20;99.90;;;;;;5049295;28;20056;-88
2024/02/24 01:18:03;;;;;;;0.30;0.10;;;4.20;99.90;;;;;;5014318;28;20025;-88
2024/02/24 01:20:31;;;;;;;0.30;0.10;;;4.20;99.90;;;;;;5016708;28;20080;-89
2024/02/24 01:22:59;;;;;;;0.20;0.10;;;4.10;99.90;;;;;;5029415;28;20025;-88
2024/02/24 01:25:25;;;;;;;0.25;0.10;;;4.10;99.90;;;;;;5031956;28;20064;-88
2024/02/24 01:27:51;;;;;;;0.52;0.08;;;4.10;99.90;;;;;;5029813;28;20025;-88
2024/02/24 01:30:17;;;;;;;0.40;0.10;;;4.00;99.90;;;;;;5030577;28;20055;-88
2024/02/24 01:32:43;;;;;;;0.52;0.10;;;4.00;99.90;;;;;;5031563;28;20033;-88
2024/02/24 01:35:09;;;;;;;0.28;0.10;;;4.10;99.90;;;;;;5049669;28;20469;-87
2024/02/24 01:37:35;;;;;;;0.50;0.10;;;4.10;99.90;;;;;;5029767;28;20033;-88
2024/02/24 01:40:02;;;;;;;0.50;0.10;;;4.00;99.90;;;;;;5014543;28;20445;-88
2024/02/24 01:42:27;;;;;;;0.40;0.10;;;4.00;99.90;;;;;;5013605;28;20393;-88
2024/02/24 01:44:53;;;;;;;0.90;0.10;;;4.00;99.90;;;;;;5046300;28;20025;-87
2024/02/24 01:47:19;;;;;;;0.40;0.10;;;4.00;99.90;;;;;;5031292;28;20025;-88
2024/02/24 01:49:45;;;;;;;1.13;0.10;;;4.00;99.90;;;;;;5014736;28;20028;-87
2024/02/24 01:52:11;;;;;;;0.40;0.10;;;4.00;99.90;;;;;;5047202;28;20044;-87
2024/02/24 01:54:37;;;;;;;0.80;0.45;;;3.90;99.90;;;;;;5030836;28;20020;-88
2024/02/24 01:57:06;;;;;;;1.60;0.10;;;3.90;99.90;;;;;;5012865;28;20480;-88
2024/02/24 01:59:32;;;;;;;0.88;0.10;;;3.90;99.90;;;;;;5030284;28;20029;-88
2024/02/24 02:01:58;;;;;;;0.80;0.10;;;4.00;99.90;;;;;;5010095;28;20029;-88
2024/02/24 02:04:25;;;;;;;0.75;0.17;;;3.90;99.90;;;;;;5048704;28;20295;-88
2024/02/24 02:06:51;;;;;;;0.30;0.10;;;3.90;99.90;;;;;;5029515;28;20357;-88
2024/02/24 02:09:17;;;;;;;0.65;0.20;;;3.90;99.90;;;;;;5012510;28;20052;-88
2024/02/24 02:11:43;;;;;;;0.82;0.13;;;3.90;99.90;;;;;;5013712;28;20099;-88
2024/02/24 02:14:11;;;;;;;0.50;0.20;;;3.90;99.90;;;;;;5013120;28;20051;-87
2024/02/24 02:16:38;;;;;;;0.75;0.20;;;3.90;99.90;;;;;;5012065;28;20021;-88
2024/02/24 02:19:03;;;;;;;0.55;0.20;;;4.00;99.90;;;;;;5046992;28;20025;-88
2024/02/24 02:21:31;;;;;;;0.80;0.25;;;3.90;99.90;;;;;;5047909;28;20492;-88
2024/02/24 02:23:57;;;;;;;0.63;0.20;;;3.80;99.90;;;;;;5012344;28;20040;-87
2024/02/24 02:26:23;;;;;;;0.50;0.20;;;3.90;99.90;;;;;;5028839;28;20036;-88
2024/02/24 02:28:49;;;;;;;0.63;0.20;;;3.80;99.90;;;;;;5030116;28;20056;-87
2024/02/24 02:31:15;;;;;;;0.70;0.20;;;3.80;99.90;;;;;;5025498;28;20053;-88
2024/02/24 02:33:42;;;;;;;0.65;0.20;;;3.80;99.90;;;;;;5025622;28;20045;-89
2024/02/24 02:36:07;;;;;;;0.80;0.20;;;3.80;99.90;;;;;;5027661;28;20059;-86
2024/02/24 02:38:33;;;;;;;0.90;0.20;;;3.70;99.90;;;;;;5026788;28;20025;-87
2024/02/24 02:41:01;;;;;;;1.20;0.30;;;3.70;99.90;;;;;;5012137;28;20017;-87
2024/02/24 02:43:27;;;;;;;0.82;0.20;;;3.60;99.90;;;;;;5007029;28;20124;-87
2024/02/24 02:45:53;;;;;;;1.35;0.10;;;3.60;99.90;;;;;;5026754;28;20112;-86
2024/02/24 02:48:18;;;;;;;0.35;0.10;;;3.60;99.90;;;;;;5021412;28;20033;-87
2024/02/24 02:50:44;;;;;;;1.25;0.20;;;3.60;99.90;;;;;;5040806;28;20032;-87
2024/02/24 02:53:10;;;;;;;0.47;0.20;;;3.60;99.90;;;;;;5048141;28;20458;-87
2024/02/24 02:55:35;;;;;;;0.63;0.20;;;3.50;99.90;;;;;;5030312;28;20077;-87
2024/02/24 02:58:01;;;;;;;1.23;0.20;;;3.50;99.90;;;;;;5011876;28;20045;-87
2024/02/24 03:00:27;;;;;;;1.75;0.20;;;3.50;99.90;;;;;;5024516;28;20512;-87
2024/02/24 03:02:52;;;;;;;1.38;0.20;;;3.50;99.90;;;;;;5012233;28;20416;-87
2024/02/24 03:05:18;;;;;;;0.60;0.20;;;3.50;99.90;;;;;;5030604;28;20049;-87
2024/02/24 03:07:44;;;;;;;1.33;0.20;;;3.60;99.90;;;;;;5026348;28;20049;-87
2024/02/24 03:10:10;;;;;;;0.88;0.20;;;3.60;99.90;;;;;;5026739;28;20041;-86
2024/02/24 03:12:35;;;;;;;0.80;0.20;;;3.60;99.90;;;;;;5030753;28;20127;-87
2024/02/24 03:15:02;;;;;;;0.65;0.30;;;3.60;99.90;;;;;;5027285;28;20044;-87
2024/02/24 03:17:28;;;;;;;0.77;0.20;;;3.70;99.90;;;;;;5046855;28;20044;-87
2024/02/24 03:19:53;;;;;;;0.80;0.20;;;3.60;99.90;;;;;;5029263;28;20064;-87
2024/02/24 03:22:19;;;;;;;1.02;0.20;;;3.60;99.90;;;;;;5026721;28;20036;-87
2024/02/24 03:24:44;;;;;;;0.63;0.20;;;3.60;99.90;;;;;;5024527;28;20040;-87
2024/02/24 03:27:10;;;;;;;0.73;0.22;;;3.60;99.90;;;;;;5029661;28;20032;-87
2024/02/24 03:29:36;;;;;;;0.57;0.20;;;3.60;99.90;;;;;;5027028;28;20052;-87
2024/02/24 03:32:03;;;;;;;0.63;0.20;;;3.60;99.90;;;;;;5028327;28;20060;-87
2024/02/24 03:34:29;;;;;;;1.63;0.20;;;3.60;99.90;;;;;;5044397;28;20036;-87
2024/02/24 03:36:54;;;;;;;0.40;0.20;;;3.60;99.90;;;;;;5028018;28;20036;-87
2024/02/24 03:39:21;;;;;;;0.70;0.20;;;3.60;99.90;;;;;;5047895;28;20308;-87
2024/02/24 03:41:50;;;;;;;0.60;0.20;;;3.60;99.90;;;;;;5030544;28;20100;-87
2024/02/24 03:44:15;;;;;;;0.63;0.20;;;3.50;99.90;;;;;;5028222;28;20026;-87
2024/02/24 03:46:41;;;;;;;0.57;0.20;;;3.60;99.90;;;;;;5010121;28;20393;-87
2024/02/24 03:49:07;;;;;;;0.60;0.20;;;3.60;99.90;;;;;;5017148;28;20043;-87
2024/02/24 03:51:32;;;;;;;0.57;0.20;;;3.70;99.90;;;;;;5016815;28;20404;-86
2024/02/24 03:53:58;;;;;;;0.60;0.20;;;3.60;99.90;;;;;;5030110;28;20021;-86
2024/02/24 03:56:24;;;;;;;0.80;0.20;;;3.70;99.90;;;;;;5045715;28;20029;-87
2024/02/24 03:58:49;;;;;;;1.40;0.20;;;3.70;99.90;;;;;;5049363;28;20021;-87
2024/02/24 04:01:15;;;;;;;1.63;0.20;;;3.70;99.90;;;;;;5049099;28;20106;-87
2024/02/24 04:03:41;;;;;;;0.90;0.20;;;3.70;99.90;;;;;;5033282;28;20036;-87
2024/02/24 04:06:07;;;;;;;0.70;0.20;;;3.80;99.90;;;;;;5027514;28;20091;-87
2024/02/24 04:08:33;;;;;;;0.68;0.20;;;3.80;99.90;;;;;;5031604;28;20017;-86
2024/02/24 04:10:59;;;;;;;1.35;0.20;;;3.80;99.90;;;;;;5032206;28;20556;-86
2024/02/24 04:13:25;;;;;;;0.80;0.20;;;3.90;99.90;;;;;;5027100;28;20078;-86
2024/02/24 04:15:51;;;;;;;0.82;0.22;;;3.80;99.90;;;;;;5029520;28;20028;-86
2024/02/24 04:18:17;;;;;;;0.55;0.20;;;3.80;99.90;;;;;;5034706;28;20025;-88
2024/02/24 04:20:46;;;;;;;0.50;0.20;;;3.90;99.90;;;;;;5012602;28;20021;-86
2024/02/24 04:23:12;;;;;;;1.50;0.20;;;3.80;99.90;;;;;;5030708;28;20028;-86
2024/02/24 04:25:38;;;;;;;0.80;0.20;;;3.80;99.90;;;;;;5027439;28;20029;-87
2024/02/24 04:28:04;;;;;;;0.60;0.20;;;3.90;99.90;;;;;;5012032;28;20029;-86
2024/02/24 04:30:30;;;;;;;0.40;0.10;;;4.00;99.90;;;;;;5026803;28;20110;-86
2024/02/24 04:32:55;;;;;;;1.25;0.20;;;4.10;99.90;;;;;;5046902;28;20501;-87
2024/02/24 04:35:22;;;;;;;0.50;0.10;;;4.00;99.90;;;;;;5033742;28;20492;-86
2024/02/24 04:37:47;;;;;;;0.50;0.20;;;4.00;99.90;;;;;;5008989;28;20040;-86
2024/02/24 04:40:13;;;;;;;0.73;0.20;;;4.00;99.90;;;;;;5030446;28;20029;-87
2024/02/24 04:42:39;;;;;;;0.35;0.20;;;3.90;99.90;;;;;;5024880;28;20033;-86
2024/02/24 04:45:05;;;;;;;0.52;0.10;;;3.90;99.90;;;;;;5026355;28;20029;-88
2024/02/24 04:47:30;;;;;;;0.70;0.30;;;4.00;99.90;;;;;;5033962;28;20036;-89
2024/02/24 04:49:56;;;;;;;1.85;0.40;;;4.00;99.90;;;;;;5029795;28;20028;-87
2024/02/24 04:52:22;;;;;;;0.98;0.20;;;4.00;99.90;;;;;;5048955;28;20072;-87
2024/02/24 04:54:48;;;;;;;0.60;0.30;;;4.10;99.90;;;;;;5028076;28;20578;-87
2024/02/24 04:57:13;;;;;;;0.47;0.20;;;4.00;99.90;;;;;;5026697;28;20036;-87
2024/02/24 04:59:39;;;;;;;0.70;0.30;;;4.00;99.90;;;;;;5024613;28;20029;-86
2024/02/24 05:02:05;;;;;;;0.60;0.20;;;4.00;99.90;;;;;;5026504;28;20102;-85
2024/02/24 05:04:30;;;;;;;1.85;0.10;;;4.00;99.90;;;;;;5048214;28;20460;-87
2024/02/24 05:06:56;;;;;;;0.60;0.10;;;4.10;99.90;;;;;;5026792;28;20029;-87
2024/02/24 05:09:22;;;;;;;0.52;0.17;;;4.10;99.90;;;;;;5024344;28;20061;-88
2024/02/24 05:11:47;;;;;;;0.65;0.20;;;4.10;99.90;;;;;;5042318;28;20063;-87
2024/02/24 05:14:17;;;;;;;0.50;0.20;;;4.20;99.90;;;;;;5029222;28;20032;-85
2024/02/24 05:16:42;;;;;;;0.50;0.20;;;4.20;99.90;;;;;;5047498;28;20029;-87
2024/02/24 05:19:09;;;;;;;1.55;0.20;;;4.30;99.90;;;;;;5033801;28;20017;-87
2024/02/24 05:21:35;;;;;;;0.57;0.20;;;4.40;99.90;;;;;;5045665;28;20103;-87
2024/02/24 05:24:01;;;;;;;1.63;0.20;;;4.40;99.90;;;;;;5047575;28;20039;-87
2024/02/24 05:26:28;;;;;;;0.70;0.20;;;4.50;99.90;;;;;;5011976;28;20033;-87
2024/02/24 05:28:54;;;;;;;0.60;0.20;;;4.60;99.90;;;;;;5045468;28;20129;-89
2024/02/24 05:31:20;;;;;;;1.98;0.40;;;4.60;99.90;;;;;;5047882;28;20578;-87
2024/02/24 05:33:47;;;;;;;0.65;0.30;;;4.60;99.90;;;;;;5027698;28;20052;-87
2024/02/24 05:36:15;;;;;;;0.88;0.30;;;4.60;99.90;;;;;;5043886;28;20083;-88
2024/02/24 05:38:42;;;;;;;1.05;0.20;;;4.70;99.90;;;;;;5024982;28;20075;-87
2024/02/24 05:41:08;;;;;;;0.80;0.22;;;4.60;99.90;;;;;;5012344;28;20025;-88
2024/02/24 05:43:33;;;;;;;0.60;0.20;;;4.60;99.90;;;;;;5030252;28;20500;-86
2024/02/24 05:46:03;;;;;;;0.60;0.20;;;4.70;99.90;;;;;;5033062;28;20047;-86
2024/02/24 05:48:30;;;;;;;0.55;0.17;;;4.70;99.90;;;;;;5012333;28;20033;-87
2024/02/24 05:50:56;;;;;;;0.60;0.20;;;4.70;99.90;;;;;;5043297;28;20021;-88
2024/02/24 05:53:22;;;;;;;0.40;0.20;;;4.70;99.90;;;;;;5025361;28;20060;-86
2024/02/24 05:55:49;;;;;;;1.00;0.20;;;4.70;99.90;;;;;;5049319;28;20056;-87
2024/02/24 05:58:15;;;;;;;0.73;0.40;;;4.80;99.90;;;;;;5027493;28;20025;-86
2024/02/24 06:00:41;;;;;;;1.35;0.20;;;4.80;99.90;;;;;;5029322;28;20039;-87
2024/02/24 06:03:10;;;;;;;1.02;0.43;;;4.80;99.90;;;;;;5012462;28;20115;-87
2024/02/24 06:05:36;;;;;;;0.30;0.20;;;4.90;99.90;;;;;;5011688;28;20044;-87
2024/02/24 06:08:02;;;;;;;0.63;0.20;;;4.90;99.90;;;;;;5029439;28;20037;-87
2024/02/24 06:10:28;;;;;;;1.48;0.20;;;4.90;99.90;;;;;;5025420;28;20488;-86
2024/02/24 06:12:54;;;;;;;0.60;0.10;;;4.90;99.90;;;;;;5045082;28;20059;-87
2024/02/24 06:15:19;;;;;;;0.95;0.30;;;4.90;99.90;;;;;;5019739;28;20532;-87
2024/02/24 06:17:45;;;;;;;0.60;0.20;;;4.90;99.90;;;;;;5022848;28;20025;-86
2024/02/24 06:20:11;;;;;;;0.60;0.20;;;5.00;99.90;;;;;;5029335;28;20078;-87
2024/02/24 06:22:37;;;;;;;0.40;0.10;;;5.00;99.90;;;;;;5022361;28;20033;-87
2024/02/24 06:25:04;;;;;;;1.05;0.17;;;5.00;99.90;;;;;;5010803;28;20102;-86
2024/02/24 06:27:31;;;;;;;0.60;0.30;;;5.00;99.90;;;;;;5040532;28;20037;-87
2024/02/24 06:30:00;;;;;;;0.57;0.20;;;5.00;99.90;;;;;;5039111;28;20075;-86
2024/02/24 06:32:25;;;;;;;0.63;0.15;;;5.00;99.90;;;;;;5026006;28;20055;-87
2024/02/24 06:34:51;;;;;;;0.60;0.20;;;5.10;99.90;;;;;;5022542;28;20104;-87
2024/02/24 06:37:17;;;;;;;0.60;0.20;;;5.10;99.90;;;;;;5039124;28;20028;-87
2024/02/24 06:39:43;;;;;;;0.70;0.30;;;5.10;99.90;;;;;;5025295;28;20070;-86
2024/02/24 06:42:08;;;;;;;1.77;0.20;;;5.00;99.90;;;;;;5023333;28;20446;-87
2024/02/24 06:44:34;;;;;;;2.08;0.30;;;5.00;99.90;;;;;;5023787;28;20044;-88
2024/02/24 06:47:00;;;;;;;0.80;0.20;;;5.00;99.90;;;;;;5007203;28;20037;-90
2024/02/24 06:49:25;;;;;;;0.82;0.20;;;5.00;99.90;;;;;;5017733;28;20029;-86
2024/02/24 06:51:51;;;;;;;0.40;0.10;;;5.00;99.90;;;;;;5009894;28;20045;-90
2024/02/24 06:54:17;;;;;;;2.05;0.20;;;5.00;99.90;;;;;;5021158;28;20466;-90
2024/02/24 06:56:43;;;;;;;1.70;0.20;;;5.00;99.90;;;;;;5041356;28;20028;-88
2024/02/24 06:59:08;;;;;;;0.88;0.20;;;5.00;99.90;;;;;;5046684;28;20476;-89
2024/02/24 07:01:34;;;;;;;0.60;0.20;;;5.00;99.90;;;;;;5007009;28;20029;-88
2024/02/24 07:04:00;;;;;;;0.60;0.20;;;5.00;99.90;;;;;;5022534;28;20032;-87
2024/02/24 07:06:26;;;;;;;0.80;0.20;;;5.10;99.90;;;;;;5044852;28;20025;-90
2024/02/24 07:08:52;;;;;;;0.70;0.30;;;5.10;99.90;;;;;;5011778;28;20086;-87
2024/02/24 07:11:17;;;;;;;0.50;0.20;;;5.10;99.90;;;;;;5030620;28;20124;-87
2024/02/24 07:13:43;;;;;;;0.70;0.20;;;5.10;99.90;;;;;;5009625;28;20048;-87
2024/02/24 07:16:09;;;;;;;0.50;0.20;;;5.10;99.90;;;;;;5009117;28;20029;-85
2024/02/24 07:18:36;;;;;;;0.82;0.30;;;5.10;99.90;;;;;;5026106;28;20025;-87
2024/02/24 07:21:02;;;;;;;0.77;0.30;;;5.20;99.90;;;;;;5014477;28;20120;-86
2024/02/24 07:23:28;;;;;;;0.90;0.20;;;5.20;99.90;;;;;;5024921;28;20064;-85
2024/02/24 07:25:54;;;;;;;1.02;0.20;;;5.20;99.90;;;;;;5010247;28;20029;-87
2024/02/24 07:28:19;;;;;;;1.08;0.28;;;5.30;99.90;;;;;;5030031;28;20066;-87
2024/02/24 07:30:45;;;;;;;0.63;0.25;;;5.30;99.90;;;;;;5023757;28;20041;-87
2024/02/24 07:33:11;;;;;;;0.50;0.20;;;5.40;99.90;;;;;;5046955;28;20032;-85
2024/02/24 07:35:37;;;;;;;0.80;0.30;;;5.40;99.90;;;;;;5025487;28;20033;-89
2024/02/24 07:38:03;;;;;;;1.52;0.30;;;5.40;99.90;;;;;;5032151;28;20036;-87
2024/02/24 07:40:28;;;;;;;0.55;0.25;;;5.40;99.90;;;;;;5048052;28;20028;-87
2024/02/24 07:42:54;;;;;;;0.70;0.20;;;5.50;99.90;;;;;;5014934;28;20064;-87
2024/02/24 07:45:25;;;;;;;0.88;0.20;;;5.50;99.90;;;;;;5014591;28;20073;-87
2024/02/24 07:47:51;;;;;;;0.85;0.20;;;5.60;99.90;;;;;;5041199;28;20056;-87
2024/02/24 07:50:17;;;;;;;0.40;0.20;;;5.60;99.90;;;;;;5029060;28;20033;-86
2024/02/24 07:52:43;;;;;;;0.77;0.30;;;5.70;99.90;;;;;;5048570;28;20090;-86
2024/02/24 07:55:09;;;;;;;0.50;0.25;;;5.70;99.90;;;;;;5047439;28;20021;-85
2024/02/24 07:57:35;;;;;;;0.75;0.20;;;5.70;99.90;;;;;;5026704;28;20439;-86
2024/02/24 08:00:01;;;;;;;0.50;0.20;;;5.70;99.90;;;;;;5048089;28;20017;-86
2024/02/24 08:02:27;;;;;;;0.77;0.20;;;5.80;99.90;;;;;;5025515;28;20396;-87
2024/02/24 08:04:52;;;;;;;0.43;0.10;;;5.80;99.90;;;;;;5047059;28;20028;-86
2024/02/24 08:07:19;;;;;;;2.15;0.20;;;5.90;99.90;;;;;;5045818;28;20033;-86
2024/02/24 08:09:44;;;;;;;1.80;0.30;;;6.00;99.90;;;;;;5026447;28;20029;-87
2024/02/24 08:12:10;;;;;;;1.25;0.20;;;6.00;99.90;;;;;;5010398;28;20106;-86
2024/02/24 08:14:36;;;;;;;0.75;0.20;;;6.00;99.90;;;;;;5014528;28;20552;-86
2024/02/24 08:17:02;;;;;;;0.60;0.20;;;6.10;99.90;;;;;;5022898;28;20029;-88
2024/02/24 08:19:27;;;;;;;0.68;0.20;;;6.10;99.90;;;;;;5026299;28;20297;-87
2024/02/24 08:21:53;;;;;;;0.98;0.30;;;6.20;99.90;;;;;;5042599;28;20031;-88
2024/02/24 08:24:19;;;;;;;0.98;0.30;;;6.30;99.90;;;;;;5047340;28;20527;-86
2024/02/24 08:26:45;;;;;;;0.65;0.20;;;6.30;99.90;;;;;;5007960;28;20044;-86
2024/02/24 08:29:11;;;;;;;0.70;0.20;;;6.30;99.90;;;;;;5025766;28;20057;-84
2024/02/24 08:31:38;;;;;;;2.17;0.30;;;6.40;99.90;;;;;;5024940;28;20248;-88
2024/02/24 08:34:04;;;;;;;0.60;0.20;;;6.30;99.90;;;;;;5049010;28;20017;-87
2024/02/24 08:36:29;;;;;;;0.70;0.20;;;6.40;99.90;;;;;;5032450;28;20037;-87
2024/02/24 08:38:56;;;;;;;1.70;0.30;;;6.50;99.90;;;;;;5046531;28;20029;-87
2024/02/24 08:41:22;;;;;;;0.70;0.20;;;6.60;99.90;;;;;;5008900;28;20040;-86
2024/02/24 08:43:48;;;;;;;0.50;0.20;;;6.70;99.90;;;;;;5023709;28;20455;-87
2024/02/24 08:46:14;;;;;;;1.08;0.30;;;6.70;99.90;;;;;;5025254;28;20036;-87
2024/02/24 08:48:40;;;;;;;0.90;0.22;;;6.70;99.90;;;;;;5022702;28;20075;-89
2024/02/24 08:51:05;;;;;;;1.23;0.30;;;6.80;99.90;;;;;;5010410;28;20038;-85
2024/02/24 08:53:31;;;;;;;0.65;0.20;;;6.70;99.90;;;;;;5028783;28;20076;-88
2024/02/24 08:56:00;;;;;;;1.40;0.30;;;6.80;99.90;;;;;;5010229;28;20376;-87
2024/02/24 08:58:27;;;;;;;0.83;0.30;;;6.80;99.90;;;;;;5022714;28;20060;-87
2024/02/24 09:00:54;;;;;;;0.60;0.20;;;6.80;99.90;;;;;;5029209;28;20283;-86
2024/02/24 09:03:20;;;;;;;0.88;0.30;;;6.70;99.90;;;;;;5045532;28;20036;-85
2024/02/24 09:05:46;;;;;;;0.88;0.28;;;6.70;99.90;;;;;;5046966;28;20033;-89
2024/02/24 09:08:11;;;;;;;0.82;0.20;;;6.60;99.90;;;;;;5012575;28;20021;-86
2024/02/24 09:10:37;;;;;;;0.65;0.25;;;6.60;99.90;;;;;;5046287;28;21998;-88
2024/02/24 09:13:03;;;;;;;0.73;0.30;;;6.50;99.90;;;;;;5004604;28;20082;-88
2024/02/24 09:15:29;;;;;;;1.25;0.20;;;6.40;99.90;;;;;;5041576;28;20025;-87
2024/02/24 09:17:55;;;;;;;0.65;0.20;;;6.50;99.90;;;;;;5026625;28;20021;-89
2024/02/24 09:20:21;;;;;;;0.52;0.20;;;6.60;99.90;;;;;;5030236;28;20111;-87
2024/02/24 09:22:48;;;;;;;0.60;0.20;;;6.50;99.90;;;;;;5032628;28;20082;-88
2024/02/24 09:25:15;;;;;;;0.85;0.20;;;6.50;99.90;;;;;;5010518;28;20112;-87
2024/02/24 09:27:46;;;;;;;0.55;0.10;;;6.60;99.90;;;;;;5033268;28;20440;-88
2024/02/24 09:30:12;;;;;;;0.50;0.10;;;6.50;99.90;;;;;;5035078;28;20056;-87
2024/02/24 09:32:38;;;;;;;0.60;0.20;;;6.40;99.90;;;;;;5032358;28;20037;-87
2024/02/24 09:35:05;;;;;;;1.05;0.30;;;6.40;99.90;;;;;;5031278;28;20033;-87
2024/02/24 09:37:32;;;;;;;1.45;0.20;;;6.40;99.90;;;;;;5033657;28;20431;-88
2024/02/24 09:39:58;;;;;;;1.02;0.30;;;6.40;99.90;;;;;;5029818;28;20031;-86
2024/02/24 09:42:27;;;;;;;1.27;0.40;;;6.30;99.90;;;;;;5027184;28;20029;-86
2024/02/24 09:44:59;;;;;;;0.90;0.30;;;6.30;99.90;;;;;;5044545;28;20388;-87
2024/02/24 09:47:25;;;;;;;1.48;0.40;;;6.20;99.90;;;;;;5029765;28;20033;-85
2024/02/24 09:49:52;;;;;;;0.80;0.38;;;6.30;99.90;;;;;;5004011;28;20068;-87
2024/02/24 09:52:18;;;;;;;1.33;0.40;;;6.30;99.90;;;;;;5025559;28;20052;-85
2024/02/24 09:54:44;;;;;;;1.65;0.50;;;6.20;99.90;;;;;;5026262;28;20030;-85
2024/02/24 09:57:15;;;;;;;2.05;0.50;;;6.20;99.90;;;;;;5047401;28;20408;-85
2024/02/24 09:59:44;;;;;;;1.20;0.40;;;6.20;99.90;;;;;;5011327;28;20060;-84
2024/02/24 10:02:12;;;;;;;2.05;0.45;;;6.10;99.90;;;;;;5045570;28;20025;-85
2024/02/24 10:04:38;;;;;;;0.80;0.40;;;5.60;99.90;;;;;;5023519;28;20044;-87
2024/02/24 10:07:05;;;;;;;0.95;0.30;;;5.40;99.90;;;;;;5012359;28;20029;-85
2024/02/24 10:09:31;;;;;;;2.42;0.40;;;5.30;99.90;;;;;;5010553;28;20024;-89
2024/02/24 10:11:57;;;;;;;1.05;0.40;;;5.10;99.90;;;;;;5023396;28;20126;-85
2024/02/24 10:14:23;;;;;;;1.40;0.45;;;5.30;99.90;;;;;;5025884;28;20025;-87
2024/02/24 10:16:52;;;;;;;1.48;0.50;;;5.30;99.90;;;;;;5025955;28;20037;-90
2024/02/24 10:19:17;;;;;;;3.03;0.63;;;5.30;99.90;;;;;;5045973;28;20029;-86
2024/02/24 10:21:43;;;;;;;1.95;0.60;;;5.30;99.90;;;;;;5027612;28;20056;-85
2024/02/24 10:24:09;;;;;;;1.42;0.50;;;5.30;99.90;;;;;;5026028;28;20053;-86
2024/02/24 10:26:35;;;;;;;1.75;0.60;;;5.20;99.90;;;;;;5009715;28;20136;-86
2024/02/24 10:29:07;;;;;;;1.90;0.90;;;5.20;99.90;;;;;;5014534;28;20021;-90
2024/02/24 10:31:34;;;;;;;2.63;0.50;;;5.20;99.90;;;;;;5024644;28;20045;-86
2024/02/24 10:34:02;;;;;;;1.50;0.55;;;5.20;99.90;;;;;;5028252;28;20108;-86
2024/02/24 10:36:28;;;;;;;1.90;0.50;;;5.30;99.90;;;;;;5025549;28;20493;-87
2024/02/24 10:38:55;;;;;;;1.48;0.52;;;5.40;99.90;;;;;;5029338;28;20036;-87
2024/02/24 10:41:22;;;;;;;1.10;0.40;;;5.40;99.90;;;;;;5030530;28;20045;-91
2024/02/24 10:43:50;;;;;;;1.58;0.40;;;5.50;99.90;;;;;;5030465;28;20098;-86
2024/02/24 10:46:16;;;;;;;2.13;0.50;;;5.40;99.90;;;;;;5029056;28;20024;-89
2024/02/24 10:48:42;;;;;;;1.33;0.60;;;5.50;99.90;;;;;;5027822;28;20037;-86
2024/02/24 10:51:12;;;;;;;2.13;0.50;;;5.60;99.90;;;;;;5024763;28;20041;-83
2024/02/24 10:53:44;;;;;;;1.73;0.43;;;5.70;99.90;;;;;;5047314;28;20093;-86
2024/02/24 10:56:11;;;;;;;1.42;0.55;;;5.90;99.90;;;;;;5015551;28;20037;-86
2024/02/24 10:58:37;;;;;;;2.65;0.98;;;6.10;99.90;;;;;;5044608;28;20056;-84
2024/02/24 11:01:04;;;;;;;1.85;0.60;;;5.90;99.90;;;;;;5008912;28;20132;-86
2024/02/24 11:03:31;;;;;;;5.10;1.73;;;6.10;99.90;;;;;;5039224;28;20120;-85
2024/02/24 11:05:57;;;;;;;2.53;1.55;;;6.10;99.90;;;;;;5021637;28;20132;-85
2024/02/24 11:08:43;;;;;;;3.75;1.92;;;6.10;99.90;;;;;;5023503;28;20060;-83
2024/02/24 11:11:08;;;;;;;4.38;1.48;;;6.20;99.90;;;;;;5043527;28;20121;-85
2024/02/24 11:13:34;;;;;;;3.38;1.05;;;6.20;99.90;;;;;;5022053;28;20447;-84
2024/02/24 11:16:00;;;;;;;2.80;1.00;;;6.30;99.90;;;;;;5024101;28;20525;-85
2024/02/24 11:18:48;;;;;;;1.83;1.10;;;6.60;99.90;;;;;;5023254;28;20025;-83
2024/02/24 11:21:17;;;;;;;2.28;1.23;;;7.30;99.90;;;;;;5024898;28;20045;-84
2024/02/24 11:23:44;;;;;;;4.10;0.88;;;7.20;99.90;;;;;;5023899;28;20098;-83
2024/02/24 11:26:16;;;;;;;1.80;0.85;;;7.00;99.90;;;;;;5043124;28;20441;-84
2024/02/24 11:29:01;;;;;;;2.60;1.00;;;7.00;99.90;;;;;;5044717;28;20033;-84
2024/02/24 11:31:31;;;;;;;1.30;0.65;;;6.50;99.90;;;;;;5038761;28;20049;-83
2024/02/24 11:34:01;;;;;;;2.25;0.85;;;6.50;99.90;;;;;;5021673;28;20436;-83
2024/02/24 11:36:29;;;;;;;1.92;0.90;;;6.90;99.90;;;;;;5022180;28;20036;-85
2024/02/24 11:38:57;;;;;;;2.03;0.60;;;7.60;99.90;;;;;;5027787;28;20146;-83
2024/02/24 11:41:26;;;;;;;1.10;0.60;;;7.80;99.90;;;;;;5043826;28;20079;-83
2024/02/24 11:43:53;;;;;;;1.33;0.55;;;7.70;99.90;;;;;;5021085;28;20029;-87
2024/02/24 11:46:18;;;;;;;1.58;0.57;;;7.70;99.90;;;;;;5012006;28;20033;-86
2024/02/24 11:48:44;;;;;;;1.02;0.47;;;7.40;99.90;;;;;;5006590;28;20527;-84
2024/02/24 11:51:10;;;;;;;1.33;0.60;;;7.30;99.90;;;;;;5042859;28;20174;-82
2024/02/24 11:53:35;;;;;;;1.98;0.43;;;7.00;99.90;;;;;;5020979;28;20029;-84
2024/02/24 11:56:01;;;;;;;1.13;0.40;;;7.00;99.90;;;;;;5011402;28;20021;-85
2024/02/24 11:58:27;;;;;;;2.88;0.43;;;6.80;99.90;;;;;;5011509;28;20024;-86
2024/02/24 12:00:54;;;;;;;1.10;0.40;;;6.70;99.90;;;;;;5026190;28;20077;-85
2024/02/24 12:03:19;;;;;;;1.48;0.32;;;6.70;99.90;;;;;;5047066;28;20029;-84
2024/02/24 12:05:45;;;;;;;1.23;0.30;;;6.60;99.90;;;;;;5027338;28;20543;-86
2024/02/24 12:08:15;;;;;;;1.67;0.43;;;6.40;99.90;;;;;;5027077;28;20083;-86
2024/02/24 12:10:41;;;;;;;;;;;6.10;99.90;;;;;;5054666;28;20117;-89
2024/02/24 12:13:09;;;;;;;1.70;0.30;;;5.70;99.90;;;;;;5011849;28;19999;-87
2024/02/24 12:15:45;;;;;;;1.23;0.30;;;5.90;99.90;;;;;;5030131;28;20075;-88
2024/02/24 12:18:11;;;;;;;1.50;0.30;;;6.00;99.90;;;;;;5043870;28;20102;-86
2024/02/24 12:20:37;;;;;;;3.65;0.40;;;6.10;99.90;;;;;;5048666;28;20029;-86
2024/02/24 12:23:04;;;;;;;1.60;0.30;;;6.00;99.90;;;;;;5028198;28;20033;-85
2024/02/24 12:25:30;;;;;;;0.70;0.30;;;6.00;99.90;;;;;;5026278;28;20036;-86
2024/02/24 12:27:55;;;;;;;2.20;0.40;;;6.00;99.90;;;;;;5009422;28;20033;-85
2024/02/24 12:30:21;;;;;;;1.00;0.30;;;6.10;99.90;;;;;;5014453;28;20144;-83
2024/02/24 12:32:47;;;;;;;1.23;0.30;;;6.10;99.90;;;;;;5029478;28;20047;-88
2024/02/24 12:35:13;;;;;;;1.30;0.30;;;6.30;99.90;;;;;;5027163;28;20037;-84
2024/02/24 12:37:39;;;;;;;1.25;0.30;;;6.50;99.90;;;;;;5014266;28;20044;-86
2024/02/24 12:40:05;;;;;;;1.25;0.30;;;6.70;99.90;;;;;;5027139;28;20051;-84
2024/02/24 12:42:39;;;;;;;1.48;0.30;;;6.60;99.90;;;;;;5030164;28;20387;-83
2024/02/24 12:45:06;;;;;;;2.63;0.30;;;6.60;99.90;;;;;;5009893;28;20471;-84
2024/02/24 12:47:32;;;;;;;1.08;0.40;;;6.70;99.90;;;;;;5027227;28;20367;-85
2024/02/24 12:49:58;;;;;;;1.90;0.32;;;6.90;99.90;;;;;;5012543;28;20043;-84
2024/02/24 12:52:24;;;;;;;1.73;0.30;;;7.00;99.90;;;;;;5028638;28;20089;-87